Time;durP1;ratioP1;P1;durP2;ratioP2;P2;SDS_P1;SDS_P2;PMS_P1;PMS_P2;Temp;Humidity;BMP_temperature;BMP_pressure;BME280_temperature;BME280_humidity;BME280_pressure;Samples;Min_cycle;Max_cycle;Signal;HPM_P1;HPM_P2
2023/10/17 00:00:38;;;;;;;;;;;;;;;;;;5021106;28;19933;-81
2023/10/17 00:03:04;;;;;;;;;;;;;;;;;;4997209;28;20403;-84
2023/10/17 00:05:31;;;;;;;;;;;;;;;;;;5022922;28;20396;-81
2023/10/17 00:07:58;;;;;;;;;;;;;;;;;;5019504;28;19929;-85
2023/10/17 00:10:25;;;;;;;;;;;;;;;;;;5001630;28;19932;-84
2023/10/17 00:12:52;;;;;;;;;;;;;;;;;;5021695;28;19929;-84
2023/10/17 00:15:27;;;;;;;;;;;;;;;;;;5020628;28;20125;-82
2023/10/17 00:17:55;;;;;;;;;;;;;;;;;;5023754;28;19932;-81
2023/10/17 00:20:25;;;;;;;;;;;;;;;;;;5018659;28;19983;-81
2023/10/17 00:22:53;;;;;;;;;;;;;;;;;;5023678;28;19935;-80
2023/10/17 00:25:20;;;;;;;;;;;;;;;;;;5005471;28;20384;-80
2023/10/17 00:27:45;;;;;;;;;;;;;;;;;;5022749;28;20492;-83
2023/10/17 00:30:18;;;;;;;;;;;;;;;;;;5020512;28;19982;-81
2023/10/17 00:32:44;;;;;;;;;;;;;;;;;;4996777;28;19929;-81
2023/10/17 00:35:18;;;;;;;;;;;;;;;;;;5036921;28;19967;-82
2023/10/17 00:37:57;;;;;;;;;;;;;;;;;;4994398;28;19929;-85
2023/10/17 00:40:56;;;;;;;;;;;;;;;;;;5022066;28;20403;-81
2023/10/17 00:43:15;;;;;;;;;;;;;;;;;;5015880;28;19963;-84
2023/10/17 00:45:41;;;;;;;;;;;;;;;;;;5021935;28;20031;-81
2023/10/17 00:48:17;;;;;;;;;;;;;;;;;;5042909;28;19925;-81
2023/10/17 00:50:43;;;;;;;;;;;;;;;;;;5044720;28;19936;-86
2023/10/17 00:53:11;;;;;;;;;;;;;;;;;;5022375;28;19929;-81
2023/10/17 00:55:37;;;;;;;;;;;;;;;;;;5017825;28;19933;-82
2023/10/17 00:58:06;;;;;;;;;;;;;;;;;;5023407;28;19983;-83
2023/10/17 01:00:47;;;;;;;;;;;;;;;;;;5021658;28;20059;-85
2023/10/17 01:03:13;;;;;;;;;;;;;;;;;;5017529;28;19924;-80
2023/10/17 01:05:39;;;;;;;;;;;;;;;;;;5020247;28;19929;-85
2023/10/17 01:08:05;;;;;;;;;;;;;;;;;;5021163;28;19936;-81
2023/10/17 01:10:31;;;;;;;;;;;;;;;;;;5021005;28;19956;-83
2023/10/17 01:13:02;;;;;;;;;;;;;;;;;;5018280;28;19929;-84
2023/10/17 01:15:28;;;;;;;;;;;;;;;;;;5019765;28;20023;-85
2023/10/17 01:17:54;;;;;;;;;;;;;;;;;;5003140;28;19928;-85
2023/10/17 01:20:20;;;;;;;;;;;;;;;;;;5023269;28;19929;-83
2023/10/17 01:22:46;;;;;;;;;;;;;;;;;;5043261;28;19928;-80
2023/10/17 01:25:24;;;;;;;;;;;;;;;;;;5021573;28;20647;-81
2023/10/17 01:27:51;;;;;;;;;;;;;;;;;;5020967;28;19943;-84
2023/10/17 01:30:17;;;;;;;;;;;;;;;;;;5022438;28;20381;-83
2023/10/17 01:32:44;;;;;;;;;;;;;;;;;;5021532;28;19970;-82
2023/10/17 01:35:10;;;;;;;;;;;;;;;;;;4996397;28;20017;-83
2023/10/17 01:37:36;;;;;;;;;;;;;;;;;;5027306;28;19939;-82
2023/10/17 01:40:08;;;;;;;;;;;;;;;;;;5020278;28;19933;-85
2023/10/17 01:42:34;;;;;;;;;;;;;;;;;;5022031;28;19929;-86
2023/10/17 01:45:00;;;;;;;;;;;;;;;;;;5019068;28;19935;-81
2023/10/17 01:47:26;;;;;;;;;;;;;;;;;;5018294;28;19929;-85
2023/10/17 01:49:52;;;;;;;;;;;;;;;;;;5016370;28;20507;-83
2023/10/17 01:52:18;;;;;;;;;;;;;;;;;;5016444;28;19925;-84
2023/10/17 01:54:48;;;;;;;;;;;;;;;;;;5016307;28;19939;-84
2023/10/17 01:57:14;;;;;;;;;;;;;;;;;;5017420;28;19936;-85
2023/10/17 01:59:40;;;;;;;;;;;;;;;;;;4998971;28;19936;-85
2023/10/17 02:02:06;;;;;;;;;;;;;;;;;;5013810;28;20626;-85
2023/10/17 02:04:35;;;;;;;;;;;;;;;;;;5016668;28;20012;-86
2023/10/17 02:07:02;;;;;;;;;;;;;;;;;;5019252;28;19940;-84
2023/10/17 02:12:00;;;;;;;;;;;;;;;;;;5054570;28;19928;-86
2023/10/17 02:14:26;;;;;;;;;;;;;;;;;;4995680;28;19925;-84
2023/10/17 02:16:52;;;;;;;;;;;;;;;;;;5016773;28;20483;-82
2023/10/17 02:19:31;;;;;;;;;;;;;;;;;;5017176;28;19978;-82
2023/10/17 02:22:01;;;;;;;;;;;;;;;;;;5032036;28;19932;-85
2023/10/17 02:24:29;;;;;;;;;;;;;;;;;;5033067;28;19976;-83
2023/10/17 02:26:55;;;;;;;;;;;;;;;;;;5015052;28;19933;-85
2023/10/17 02:29:24;;;;;;;;;;;;;;;;;;5018937;28;19929;-85
2023/10/17 02:31:52;;;;;;;;;;;;;;;;;;5012841;28;20010;-81
2023/10/17 02:34:22;;;;;;;;;;;;;;;;;;5019799;28;19929;-85
2023/10/17 02:36:48;;;;;;;;;;;;;;;;;;5019921;28;20015;-82
2023/10/17 02:39:13;;;;;;;;;;;;;;;;;;5018045;28;20432;-83
2023/10/17 02:41:45;;;;;;;;;;;;;;;;;;4995891;28;20016;-84
2023/10/17 02:44:11;;;;;;;;;;;;;;;;;;4992952;28;19928;-86
2023/10/17 02:46:37;;;;;;;;;;;;;;;;;;5052219;28;19928;-85
2023/10/17 02:49:07;;;;;;;;;;;;;;;;;;5016580;28;19933;-84
2023/10/17 02:51:42;;;;;;;;;;;;;;;;;;5015433;28;19929;-84
2023/10/17 02:54:14;;;;;;;;;;;;;;;;;;5016141;28;20292;-85
2023/10/17 02:56:46;;;;;;;;;;;;;;;;;;5014850;28;19924;-83
2023/10/17 02:59:12;;;;;;;;;;;;;;;;;;5020829;28;19964;-84
2023/10/17 03:01:38;;;;;;;;;;;;;;;;;;5005738;28;19972;-86
2023/10/17 03:04:12;;;;;;;;;;;;;;;;;;5023130;28;20449;-84
2023/10/17 03:06:38;;;;;;;;;;;;;;;;;;5020105;28;19929;-86
2023/10/17 03:09:15;;;;;;;;;;;;;;;;;;5020611;28;19986;-82
2023/10/17 03:11:50;;;;;;;;;;;;;;;;;;5021233;28;20275;-84
2023/10/17 03:14:19;;;;;;;;;;;;;;;;;;4991633;28;19932;-84
2023/10/17 03:16:52;;;;;;;;;;;;;;;;;;5021566;28;19929;-82
2023/10/17 03:19:18;;;;;;;;;;;;;;;;;;5002328;28;20038;-85
2023/10/17 03:21:44;;;;;;;;;;;;;;;;;;5043320;28;20003;-83
2023/10/17 03:24:10;;;;;;;;;;;;;;;;;;5000833;28;19929;-84
2023/10/17 03:26:39;;;;;;;;;;;;;;;;;;5020763;28;19924;-85
2023/10/17 03:29:11;;;;;;;;;;;;;;;;;;5021177;28;20401;-83
2023/10/17 03:31:38;;;;;;;;;;;;;;;;;;5036838;28;19964;-82
2023/10/17 03:34:05;;;;;;;;;;;;;;;;;;5018624;28;20406;-81
2023/10/17 03:36:41;;;;;;;;;;;;;;;;;;5038368;28;19975;-82
2023/10/17 03:41:58;;;;;;;;;;;;;;;;;;5049385;28;19936;-83
2023/10/17 03:44:30;;;;;;;;;;;;;;;;;;5051413;28;19936;-83
2023/10/17 03:46:59;;;;;;;;;;;;;;;;;;5015957;28;19928;-85
2023/10/17 03:49:24;;;;;;;;;;;;;;;;;;5035273;28;20015;-80
2023/10/17 03:51:54;;;;;;;;;;;;;;;;;;5050905;28;19929;-84
2023/10/17 03:54:22;;;;;;;;;;;;;;;;;;4997253;28;19929;-84
2023/10/17 03:56:55;;;;;;;;;;;;;;;;;;4993765;28;19929;-82
2023/10/17 03:59:31;;;;;;;;;;;;;;;;;;5054939;28;20246;-86
2023/10/17 04:01:57;;;;;;;;;;;;;;;;;;5014541;28;19937;-84
2023/10/17 04:04:35;;;;;;;;;;;;;;;;;;5021060;28;19928;-85
2023/10/17 04:07:04;;;;;;;;;;;;;;;;;;5017286;28;19959;-85
2023/10/17 04:09:32;;;;;;;;;;;;;;;;;;5055567;28;19932;-85
2023/10/17 04:11:58;;;;;;;;;;;;;;;;;;5000211;28;20415;-82
2023/10/17 04:14:33;;;;;;;;;;;;;;;;;;5020795;28;20015;-83
2023/10/17 04:16:59;;;;;;;;;;;;;;;;;;5020903;28;20487;-82
2023/10/17 04:19:26;;;;;;;;;;;;;;;;;;5019270;28;19970;-82
2023/10/17 04:22:01;;;;;;;;;;;;;;;;;;4994639;28;19933;-84
2023/10/17 04:24:28;;;;;;;;;;;;;;;;;;5020134;28;20436;-81
2023/10/17 04:27:07;;;;;;;;;;;;;;;;;;5021929;28;19925;-85
2023/10/17 04:29:33;;;;;;;;;;;;;;;;;;5018685;28;19990;-85
2023/10/17 04:32:01;;;;;;;;;;;;;;;;;;5017981;28;19928;-83
2023/10/17 04:34:27;;;;;;;;;;;;;;;;;;5021294;28;20012;-82
2023/10/17 04:36:56;;;;;;;;;;;;;;;;;;5003648;28;19939;-82
2023/10/17 04:39:48;;;;;;;;;;;;;;;;;;5020126;28;19928;-84
2023/10/17 04:42:19;;;;;;;;;;;;;;;;;;5036814;28;20293;-86
2023/10/17 04:45:06;;;;;;;;;;;;;;;;;;4996808;28;20395;-80
2023/10/17 04:47:32;;;;;;;;;;;;;;;;;;5003004;28;19925;-86
2023/10/17 04:49:58;;;;;;;;;;;;;;;;;;5017831;28;19929;-82
2023/10/17 04:52:40;;;;;;;;;;;;;;;;;;5016711;28;19928;-85
2023/10/17 04:55:18;;;;;;;;;;;;;;;;;;5002729;28;19925;-82
2023/10/17 05:03:14;;;;;;;;;;;;;;;;;;5017760;28;19975;-83
2023/10/17 05:05:40;;;;;;;;;;;;;;;;;;5035246;28;19929;-83
2023/10/17 05:08:17;;;;;;;;;;;;;;;;;;5035621;28;19939;-83
2023/10/17 06:19:08;;;;;;;;;;;;;;;;;;5017415;28;21784;-85
2023/10/17 06:21:38;;;;;;;;;;;;;;;;;;5042312;28;19929;-84
2023/10/17 06:26:59;;;;;;;;;;;;;;;;;;4980166;28;20016;-81
2023/10/17 06:34:23;;;;;;;;;;;;;;;;;;5020618;28;20050;-84
2023/10/17 06:36:50;;;;;;;;;;;;;;;;;;5028755;28;19936;-83
2023/10/17 06:39:19;;;;;;;;;;;;;;;;;;5033969;28;19928;-86
2023/10/17 06:41:45;;;;;;;;;;;;;;;;;;5030439;28;19928;-85
2023/10/17 06:44:15;;;;;;;;;;;;;;;;;;5018459;28;20384;-85
2023/10/17 06:47:04;;;;;;;;;;;;;;;;;;5016230;28;20780;-85
2023/10/17 06:54:50;;;;;;;;;;;;;;;;;;5033191;28;20385;-84
2023/10/17 06:57:19;;;;;;;;;;;;;;;;;;5029672;28;20246;-86
2023/10/17 06:59:46;;;;;;;;;;;;;;;;;;5009718;28;20433;-84
2023/10/17 07:05:08;;;;;;;;;;;;;;;;;;5002054;28;19980;-84
2023/10/17 07:07:45;;;;;;;;;;;;;;;;;;5001085;28;19939;-82
2023/10/17 07:10:16;;;;;;;;;;;;;;;;;;5033945;28;19933;-83
2023/10/17 07:12:47;;;;;;;;;;;;;;;;;;5014654;28;19936;-84
2023/10/17 07:15:25;;;;;;;;;;;;;;;;;;5031538;28;19932;-83
2023/10/17 07:18:39;;;;;;;;;;;;;;;;;;5029487;28;19932;-83
2023/10/17 07:23:27;;;;;;;;;;;;;;;;;;5025238;28;19976;-88
2023/10/17 07:25:57;;;;;;;;;;;;;;;;;;5022722;28;19928;-87
2023/10/17 07:28:23;;;;;;;;;;;;;;;;;;5019398;28;20023;-86
2023/10/17 07:30:49;;;;;;;;;;;;;;;;;;5027006;28;20384;-87
2023/10/17 07:33:18;;;;;;;;;;;;;;;;;;5029407;28;20441;-84
2023/10/17 07:35:44;;;;;;;;;;;;;;;;;;5033274;28;19929;-87
2023/10/17 07:38:14;;;;;;;;;;;;;;;;;;5015045;28;20102;-85
2023/10/17 07:43:07;;;;;;;;;;;;;;;;;;5016317;28;19983;-86
2023/10/17 07:45:39;;;;;;;;;;;;;;;;;;5033821;28;20400;-84
2023/10/17 07:48:19;;;;;;;;;;;;;;;;;;5015860;28;19936;-84
2023/10/17 07:50:45;;;;;;;;;;;;;;;;;;5019408;28;19982;-87
2023/10/17 07:53:11;;;;;;;;;;;;;;;;;;5018861;28;19941;-87
2023/10/17 07:55:38;;;;;;;;;;;;;;;;;;5015919;28;20356;-86
2023/10/17 07:58:07;;;;;;;;;;;;;;;;;;5016253;28;19928;-85
2023/10/17 08:00:36;;;;;;;;;;;;;;;;;;5019275;28;19948;-81
2023/10/17 08:03:08;;;;;;;;;;;;;;;;;;5015114;28;19929;-88
2023/10/17 08:05:37;;;;;;;;;;;;;;;;;;4997898;28;19944;-84
2023/10/17 08:08:13;;;;;;;;;;;;;;;;;;5013799;28;19975;-87
2023/10/17 08:10:45;;;;;;;;;;;;;;;;;;4999559;28;20112;-86
2023/10/17 08:13:15;;;;;;;;;;;;;;;;;;5043019;28;20460;-88
2023/10/17 08:15:53;;;;;;;;;;;;;;;;;;4999090;28;19925;-85
2023/10/17 08:18:23;;;;;;;;;;;;;;;;;;5017262;28;19935;-81
2023/10/17 08:23:19;;;;;;;;;;;;;;;;;;5017803;28;19932;-88
2023/10/17 08:26:01;;;;;;;;;;;;;;;;;;5015084;28;19933;-86
2023/10/17 08:28:35;;;;;;;;;;;;;;;;;;4999225;28;20472;-87
2023/10/17 08:31:05;;;;;;;;;;;;;;;;;;4998946;28;20408;-86
2023/10/17 08:33:40;;;;;;;;;;;;;;;;;;5013568;28;20010;-86
2023/10/17 08:36:10;;;;;;;;;;;;;;;;;;5036203;28;19929;-85
2023/10/17 08:38:39;;;;;;;;;;;;;;;;;;4997183;28;19929;-87
2023/10/17 08:41:06;;;;;;;;;;;;;;;;;;5010611;28;19967;-88
2023/10/17 08:43:32;;;;;;;;;;;;;;;;;;5017726;28;19932;-87
2023/10/17 08:45:58;;;;;;;;;;;;;;;;;;4994960;28;20021;-85
2023/10/17 08:48:27;;;;;;;;;;;;;;;;;;5016109;28;19925;-88
2023/10/17 08:50:53;;;;;;;;;;;;;;;;;;5013554;28;19929;-82
2023/10/17 08:53:23;;;;;;;;;;;;;;;;;;5016597;28;19932;-86
2023/10/17 08:55:50;;;;;;;;;;;;;;;;;;5031223;28;20252;-82
2023/10/17 08:58:24;;;;;;;;;;;;;;;;;;5024764;28;19975;-82
2023/10/17 09:00:55;;;;;;;;;;;;;;;;;;5012234;28;19994;-84
2023/10/17 09:03:23;;;;;;;;;;;;;;;;;;5028413;28;19936;-84
2023/10/17 09:05:49;;;;;;;;;;;;;;;;;;5016297;28;19955;-83
2023/10/17 09:08:15;;;;;;;;;;;;;;;;;;5016996;28;19929;-86
2023/10/17 09:10:43;;;;;;;;;;;;;;;;;;5012673;28;19936;-85
2023/10/17 09:15:55;;;;;;;;;;;;;;;;;;5055708;28;20047;-87
2023/10/17 09:18:21;;;;;;;;;;;;;;;;;;5048053;28;19929;-80
2023/10/17 09:20:48;;;;;;;;;;;;;;;;;;4999915;28;20277;-83
2023/10/17 09:23:16;;;;;;;;;;;;;;;;;;5016335;28;20186;-87
2023/10/17 09:25:43;;;;;;;;;;;;;;;;;;5004932;28;20295;-87
2023/10/17 09:28:12;;;;;;;;;;;;;;;;;;5011271;28;19929;-89
2023/10/17 09:30:38;;;;;;;;;;;;;;;;;;5015930;28;19932;-85
2023/10/17 09:33:04;;;;;;;;;;;;;;;;;;5001872;28;20149;-82
2023/10/17 09:35:30;;;;;;;;;;;;;;;;;;5019826;28;19979;-85
2023/10/17 09:37:56;;;;;;;;;;;;;;;;;;5022117;28;20400;-81
2023/10/17 09:40:27;;;;;;;;;;;;;;;;;;4996037;28;20042;-84
2023/10/17 09:42:53;;;;;;;;;;;;;;;;;;5019167;28;19929;-82
2023/10/17 09:45:21;;;;;;;;;;;;;;;;;;5020541;28;19928;-87
2023/10/17 09:47:48;;;;;;;;;;;;;;;;;;5017125;28;19925;-89
2023/10/17 09:50:16;;;;;;;;;;;;;;;;;;5017551;28;20020;-86
2023/10/17 09:52:42;;;;;;;;;;;;;;;;;;5015490;28;20446;-86
2023/10/17 09:55:10;;;;;;;;;;;;;;;;;;5018704;28;20026;-85
2023/10/17 09:57:35;;;;;;;;;;;;;;;;;;5021328;28;20365;-83
2023/10/17 10:00:01;;;;;;;;;;;;;;;;;;5039343;28;19925;-84
2023/10/17 10:02:27;;;;;;;;;;;;;;;;;;5024050;28;19940;-83
2023/10/17 10:04:53;;;;;;;;;;;;;;;;;;5033829;28;19928;-86
2023/10/17 10:07:19;;;;;;;;;;;;;;;;;;5025715;28;19929;-87
2023/10/17 10:09:46;;;;;;;;;;;;;;;;;;5056659;28;20798;-84
2023/10/17 10:12:14;;;;;;;;;;;;;;;;;;5021057;28;20017;-84
2023/10/17 10:14:42;;;;;;;;;;;;;;;;;;5001867;28;19935;-88
2023/10/17 10:17:09;;;;;;;;;;;;;;;;;;5019479;28;20021;-82
2023/10/17 10:19:35;;;;;;;;;;;;;;;;;;5002985;28;20052;-84
2023/10/17 10:22:02;;;;;;;;;;;;;;;;;;5004628;28;19929;-87
2023/10/17 10:24:28;;;;;;;;;;;;;;;;;;5025160;28;19925;-86
2023/10/17 10:26:56;;;;;;;;;;;;;;;;;;5005554;28;20644;-81
2023/10/17 10:29:22;;;;;;;;;;;;;;;;;;5027947;28;20398;-86
2023/10/17 10:31:48;;;;;;;;;;;;;;;;;;5017335;28;20312;-87
2023/10/17 10:34:14;;;;;;;;;;;;;;;;;;5005531;28;20409;-88
2023/10/17 10:36:40;;;;;;;;;;;;;;;;;;5019765;28;19929;-84
2023/10/17 10:39:06;;;;;;;;;;;;;;;;;;5014824;28;20604;-87
2023/10/17 10:41:32;;;;;;;;;;;;;;;;;;5020581;28;20027;-86
2023/10/17 10:43:58;;;;;;;;;;;;;;;;;;5003445;28;19925;-86
2023/10/17 10:46:24;;;;;;;;;;;;;;;;;;5007980;28;19932;-81
2023/10/17 10:48:51;;;;;;;;;;;;;;;;;;5023320;28;19990;-82
2023/10/17 10:51:17;;;;;;;;;;;;;;;;;;5003620;28;19983;-88
2023/10/17 10:53:44;;;;;;;;;;;;;;;;;;5001163;28;19952;-89
2023/10/17 10:56:11;;;;;;;;;;;;;;;;;;5018439;28;19929;-86
2023/10/17 10:58:37;;;;;;;;;;;;;;;;;;5016589;28;19999;-87
2023/10/17 11:01:03;;;;;;;;;;;;;;;;;;5020504;28;20028;-86
2023/10/17 11:03:29;;;;;;;;;;;;;;;;;;5019772;28;20295;-87
2023/10/17 11:05:55;;;;;;;;;;;;;;;;;;5022662;28;19994;-85
2023/10/17 11:08:21;;;;;;;;;;;;;;;;;;5004597;28;19933;-86
2023/10/17 11:10:47;;;;;;;;;;;;;;;;;;5011984;28;20502;-87
2023/10/17 11:13:15;;;;;;;;;;;;;;;;;;5019898;28;19949;-80
2023/10/17 11:15:43;;;;;;;;;;;;;;;;;;5014906;28;19956;-87
2023/10/17 11:18:09;;;;;;;;;;;;;;;;;;5018856;28;19925;-87
2023/10/17 11:20:35;;;;;;;;;;;;;;;;;;5025481;28;19940;-87
2023/10/17 11:23:02;;;;;;;;;;;;;;;;;;5004634;28;20024;-87
2023/10/17 11:25:29;;;;;;;;;;;;;;;;;;5017332;28;19931;-86
2023/10/17 11:28:00;;;;;;;;;;;;;;;;;;5015051;28;19929;-87
2023/10/17 11:30:33;;;;;;;;;;;;;;;;;;5017099;28;20313;-87
2023/10/17 11:32:59;;;;;;;;;;;;;;;;;;5019901;28;20339;-85
2023/10/17 11:35:31;;;;;;;;;;;;;;;;;;5003567;28;20377;-84
2023/10/17 11:37:57;;;;;;;;;;;;;;;;;;5018008;28;19932;-84
2023/10/17 11:40:29;;;;;;;;;;;;;;;;;;5019056;28;19927;-89
2023/10/17 11:42:55;;;;;;;;;;;;;;;;;;5023197;28;19936;-90
2023/10/17 11:45:37;;;;;;;;;;;;;;;;;;5026168;28;19929;-90
2023/10/17 11:48:14;;;;;;;;;;;;;;;;;;5016778;28;20391;-88
2023/10/17 11:50:40;;;;;;;;;;;;;;;;;;5016289;28;20447;-87
2023/10/17 11:53:06;;;;;;;;;;;;;;;;;;5017888;28;20020;-89
2023/10/17 11:55:33;;;;;;;;;;;;;;;;;;5022362;28;19928;-89
2023/10/17 11:57:59;;;;;;;;;;;;;;;;;;5017537;28;19921;-88
2023/10/17 12:00:26;;;;;;;;;;;;;;;;;;5018104;28;20446;-83
2023/10/17 12:02:52;;;;;;;;;;;;;;;;;;5023832;28;19985;-88
2023/10/17 12:05:18;;;;;;;;;;;;;;;;;;5000118;28;19932;-88
2023/10/17 12:07:46;;;;;;;;;;;;;;;;;;5020237;28;20023;-85
2023/10/17 12:10:12;;;;;;;;;;;;;;;;;;5033737;28;19932;-87
2023/10/17 12:12:39;;;;;;;;;;;;;;;;;;5019863;28;20321;-87
2023/10/17 12:15:05;;;;;;;;;;;;;;;;;;4999054;28;19925;-88
2023/10/17 12:17:31;;;;;;;;;;;;;;;;;;5035382;28;20318;-85
2023/10/17 12:19:57;;;;;;;;;;;;;;;;;;5017148;28;20373;-87
2023/10/17 12:22:25;;;;;;;;;;;;;;;;;;5033699;28;19983;-88
2023/10/17 12:24:51;;;;;;;;;;;;;;;;;;4996422;28;19975;-85
2023/10/17 12:27:20;;;;;;;;;;;;;;;;;;5001751;28;19929;-85
2023/10/17 12:29:46;;;;;;;;;;;;;;;;;;5025960;28;19932;-86
2023/10/17 12:32:12;;;;;;;;;;;;;;;;;;5001077;28;19933;-86
2023/10/17 12:34:39;;;;;;;;;;;;;;;;;;5023582;28;19936;-85
2023/10/17 12:37:06;;;;;;;;;;;;;;;;;;5016964;28;20396;-82
2023/10/17 12:39:32;;;;;;;;;;;;;;;;;;5032638;28;19929;-82
2023/10/17 12:41:58;;;;;;;;;;;;;;;;;;5026309;28;19925;-86
2023/10/17 12:44:28;;;;;;;;;;;;;;;;;;5026313;28;19929;-83
2023/10/17 12:46:53;;;;;;;;;;;;;;;;;;5020939;28;19999;-83
2023/10/17 12:49:19;;;;;;;;;;;;;;;;;;5017192;28;20488;-85
2023/10/17 12:51:48;;;;;;;;;;;;;;;;;;5021996;28;20592;-86
2023/10/17 12:54:14;;;;;;;;;;;;;;;;;;5015936;28;19934;-85
2023/10/17 12:56:40;;;;;;;;;;;;;;;;;;5020582;28;20441;-87
2023/10/17 12:59:12;;;;;;;;;;;;;;;;;;5015406;28;20292;-84
2023/10/17 13:01:38;;;;;;;;;;;;;;;;;;5025708;28;19929;-82
2023/10/17 13:04:04;;;;;;;;;;;;;;;;;;5031286;28;19925;-84
2023/10/17 13:06:30;;;;;;;;;;;;;;;;;;5016895;28;20405;-85
2023/10/17 13:08:56;;;;;;;;;;;;;;;;;;5024747;28;19971;-83
2023/10/17 13:11:22;;;;;;;;;;;;;;;;;;5020776;28;20031;-83
2023/10/17 13:13:48;;;;;;;;;;;;;;;;;;5013264;28;19928;-83
2023/10/17 13:16:17;;;;;;;;;;;;;;;;;;5013887;28;19994;-81
2023/10/17 13:18:47;;;;;;;;;;;;;;;;;;5002025;28;20419;-86
2023/10/17 13:21:13;;;;;;;;;;;;;;;;;;5014398;28;20446;-85
2023/10/17 13:23:39;;;;;;;;;;;;;;;;;;5032256;28;19929;-82
2023/10/17 13:26:05;;;;;;;;;;;;;;;;;;4999774;28;19925;-84
2023/10/17 13:28:31;;;;;;;;;;;;;;;;;;5020600;28;20019;-84
2023/10/17 13:30:58;;;;;;;;;;;;;;;;;;5015931;28;20428;-83
2023/10/17 13:33:24;;;;;;;;;;;;;;;;;;5029664;28;19929;-85
2023/10/17 13:35:50;;;;;;;;;;;;;;;;;;5024830;28;19998;-81
2023/10/17 13:38:17;;;;;;;;;;;;;;;;;;5017311;28;20031;-83
2023/10/17 13:40:43;;;;;;;;;;;;;;;;;;5013187;28;19935;-82
2023/10/17 13:43:10;;;;;;;;;;;;;;;;;;4997313;28;20301;-83
2023/10/17 13:45:39;;;;;;;;;;;;;;;;;;5013396;28;20044;-87
2023/10/17 13:48:06;;;;;;;;;;;;;;;;;;5013938;28;19929;-84
2023/10/17 13:50:32;;;;;;;;;;;;;;;;;;5022996;28;19929;-87
2023/10/17 13:53:06;;;;;;;;;;;;;;;;;;5020580;28;20307;-83
2023/10/17 13:55:33;;;;;;;;;;;;;;;;;;5031354;28;19939;-85
2023/10/17 13:58:02;;;;;;;;;;;;;;;;;;5016709;28;19952;-86
2023/10/17 14:00:42;;;;;;;;;;;;;;;;;;5022540;28;19936;-85
2023/10/17 14:03:08;;;;;;;;;;;;;;;;;;5016511;28;19950;-82
2023/10/17 14:06:00;;;;;;;;;;;;;;;;;;5117521;27;19916;-82
2023/10/17 14:08:26;;;;;;;;;;;;;;;;;;5081456;28;19935;-87
2023/10/17 14:10:52;;;;;;;;;;;;;;;;;;5084660;28;19931;-84
2023/10/17 14:13:20;;;;;;;;;;;;;;;;;;5084915;28;19935;-84
2023/10/17 14:15:47;;;;;;;;;;;;;;;;;;5093104;28;20567;-87
2023/10/17 14:18:13;;;;;;;;;;;;;;;;;;5099670;28;19939;-85
2023/10/17 14:20:40;;;;;;;;;;;;;;;;;;5090222;28;19932;-87
2023/10/17 14:23:09;;;;;;;;;;;;;;;;;;5074313;28;19932;-85
2023/10/17 14:28:21;;;;;;;;;;;;;;;;;;5091815;28;19924;-84
2023/10/17 14:30:46;;;;;;;;;;;;;;;;;;5088720;28;20594;-85
2023/10/17 14:33:12;;;;;;;;;;;;;;;;;;5089101;28;19951;-86
2023/10/17 14:35:39;;;;;;;;;;;;;;;;;;5078938;28;19963;-87
2023/10/17 14:38:05;;;;;;;;;;;;;;;;;;5093669;28;19927;-84
2023/10/17 14:40:31;;;;;;;;;;;;;;;;;;5088217;28;19924;-85
2023/10/17 14:42:57;;;;;;;;;;;;;;;;;;5081549;28;20001;-82
2023/10/17 14:45:24;;;;;;;;;;;;;;;;;;5074449;28;19936;-84
2023/10/17 14:47:50;;;;;;;;;;;;;;;;;;5071074;28;20488;-88
2023/10/17 14:50:17;;;;;;;;;;;;;;;;;;5090802;28;20027;-87
2023/10/17 14:52:42;;;;;;;;;;;;;;;;;;5095076;28;20286;-87
2023/10/17 14:55:14;;;;;;;;;;;;;;;;;;5088765;28;19939;-86
2023/10/17 14:57:40;;;;;;;;;;;;;;;;;;5083705;28;20554;-87
2023/10/17 15:00:11;;;;;;;;;;;;;;;;;;5094557;28;19928;-86
2023/10/17 15:02:36;;;;;;;;;;;;;;;;;;5091794;28;20022;-85
2023/10/17 15:05:03;;;;;;;;;;;;;;;;;;5072774;28;20305;-87
2023/10/17 15:07:29;;;;;;;;;;;;;;;;;;5071946;28;19928;-85
2023/10/17 15:09:58;;;;;;;;;;;;;;;;;;5087760;28;19954;-84
2023/10/17 15:12:25;;;;;;;;;;;;;;;;;;5091884;28;20450;-86
2023/10/17 15:14:51;;;;;;;;;;;;;;;;;;5088544;28;19951;-86
2023/10/17 15:17:18;;;;;;;;;;;;;;;;;;5076554;28;19955;-86
2023/10/17 15:19:44;;;;;;;;;;;;;;;;;;5071359;28;19928;-88
2023/10/17 15:22:09;;;;;;;;;;;;;;;;;;5070438;28;19934;-80
2023/10/17 15:24:35;;;;;;;;;;;;;;;;;;5077806;28;19928;-87
2023/10/17 15:27:02;;;;;;;;;;;;;;;;;;5091229;28;19928;-95
2023/10/17 15:29:28;;;;;;;;;;;;;;;;;;5102546;28;19924;-92
2023/10/17 15:31:55;;;;;;;;;;;;;;;;;;5068361;28;19954;-86
2023/10/17 15:34:21;;;;;;;;;;;;;;;;;;5067679;28;19931;-85
2023/10/17 15:36:47;;;;;;;;;;;;;;;;;;5081857;28;19924;-88
2023/10/17 15:39:14;;;;;;;;;;;;;;;;;;5064452;28;19934;-83
2023/10/17 15:41:41;;;;;;;;;;;;;;;;;;5082434;28;19961;-89
2023/10/17 15:44:07;;;;;;;;;;;;;;;;;;5063344;28;19990;-86
2023/10/17 15:46:33;;;;;;;;;;;;;;;;;;5079791;28;19968;-88
2023/10/17 15:48:59;;;;;;;;;;;;;;;;;;5081438;28;20318;-87
2023/10/17 15:51:26;;;;;;;;;;;;;;;;;;5079102;28;19932;-87
2023/10/17 15:53:53;;;;;;;;;;;;;;;;;;5116406;27;19924;-82
2023/10/17 15:56:20;;;;;;;;;;;;;;;;;;5081116;28;19966;-88
2023/10/17 15:58:46;;;;;;;;;;;;;;;;;;5083032;28;19932;-89
2023/10/17 16:01:12;;;;;;;;;;;;;;;;;;5079185;28;20345;-78
2023/10/17 16:03:41;;;;;;;;;;;;;;;;;;5062103;28;20408;-79
2023/10/17 16:06:07;;;;;;;;;;;;;;;;;;5078209;28;19982;-80
2023/10/17 16:08:33;;;;;;;;;;;;;;;;;;5079667;28;20384;-80
2023/10/17 16:10:59;;;;;;;;;;;;;;;;;;5080683;28;19928;-84
2023/10/17 16:13:26;;;;;;;;;;;;;;;;;;5116068;27;19934;-81
2023/10/17 16:15:52;;;;;;;;;;;;;;;;;;5063066;28;20316;-89
2023/10/17 16:18:18;;;;;;;;;;;;;;;;;;5064535;28;19928;-84
2023/10/17 16:20:43;;;;;;;;;;;;;;;;;;5079004;28;20352;-89
2023/10/17 16:23:09;;;;;;;;;;;;;;;;;;5079427;28;19931;-87
2023/10/17 16:25:39;;;;;;;;;;;;;;;;;;5078383;28;19943;-87
2023/10/17 16:28:05;;;;;;;;;;;;;;;;;;5081631;28;19928;-89
2023/10/17 16:30:31;;;;;;;;;;;;;;;;;;5069921;28;19931;-90
2023/10/17 16:32:57;;;;;;;;;;;;;;;;;;5075179;28;19928;-84
2023/10/17 16:35:23;;;;;;;;;;;;;;;;;;5062817;28;19928;-86
2023/10/17 16:37:49;;;;;;;;;;;;;;;;;;5070792;28;19933;-88
2023/10/17 16:40:15;;;;;;;;;;;;;;;;;;5065172;28;20295;-91
2023/10/17 16:42:48;;;;;;;;;;;;;;;;;;5060804;28;20410;-82
2023/10/17 16:45:14;;;;;;;;;;;;;;;;;;5108978;27;19935;-82
2023/10/17 16:47:41;;;;;;;;;;;;;;;;;;5046221;28;19932;-83
2023/10/17 16:50:07;;;;;;;;;;;;;;;;;;5113532;27;19928;-90
2023/10/17 16:52:33;;;;;;;;;;;;;;;;;;5065073;28;19932;-88
2023/10/17 16:54:59;;;;;;;;;;;;;;;;;;5081030;28;20599;-88
2023/10/17 16:57:25;;;;;;;;;;;;;;;;;;5077075;28;19928;-85
2023/10/17 16:59:51;;;;;;;;;;;;;;;;;;5061502;28;19932;-84
2023/10/17 17:02:18;;;;;;;;;;;;;;;;;;5068057;28;19979;-89
2023/10/17 17:04:44;;;;;;;;;;;;;;;;;;5077996;28;19939;-88
2023/10/17 17:07:10;;;;;;;;;;;;;;;;;;5048260;28;19929;-89
2023/10/17 17:09:36;;;;;;;;;;;;;;;;;;5064841;28;19935;-84
2023/10/17 17:12:02;;;;;;;;;;;;;;;;;;5087407;28;19924;-91
2023/10/17 17:14:31;;;;;;;;;;;;;;;;;;5068187;28;20323;-92
2023/10/17 17:16:57;;;;;;;;;;;;;;;;;;5075427;28;20303;-88
2023/10/17 17:19:27;;;;;;;;;;;;;;;;;;5076807;28;19928;-91
2023/10/17 17:21:53;;;;;;;;;;;;;;;;;;5068244;28;20007;-84
2023/10/17 17:24:19;;;;;;;;;;;;;;;;;;5072820;28;20030;-87
2023/10/17 17:26:46;;;;;;;;;;;;;;;;;;5074387;28;19967;-90
2023/10/17 17:29:12;;;;;;;;;;;;;;;;;;5074603;28;19929;-87
2023/10/17 17:31:41;;;;;;;;;;;;;;;;;;5066835;28;19989;-88
2023/10/17 17:34:07;;;;;;;;;;;;;;;;;;5071364;28;20582;-90
2023/10/17 17:36:33;;;;;;;;;;;;;;;;;;5072531;28;20372;-86
2023/10/17 17:39:00;;;;;;;;;;;;;;;;;;5065173;28;19968;-89
2023/10/17 17:41:25;;;;;;;;;;;;;;;;;;5074173;28;20357;-89
2023/10/17 17:43:51;;;;;;;;;;;;;;;;;;5076429;28;20315;-81
2023/10/17 17:46:17;;;;;;;;;;;;;;;;;;5075931;28;20058;-81
2023/10/17 17:48:43;;;;;;;;;;;;;;;;;;5076909;28;20019;-90
2023/10/17 17:51:09;;;;;;;;;;;;;;;;;;5076018;28;20045;-86
2023/10/17 17:53:35;;;;;;;;;;;;;;;;;;5073760;28;19936;-88
2023/10/17 17:56:01;;;;;;;;;;;;;;;;;;5075769;28;19970;-87
2023/10/17 17:58:28;;;;;;;;;;;;;;;;;;5071463;28;19985;-80
2023/10/17 18:00:55;;;;;;;;;;;;;;;;;;5107349;27;19935;-86
2023/10/17 18:03:21;;;;;;;;;;;;;;;;;;5070905;28;19934;-85
2023/10/17 18:05:47;;;;;;;;;;;;;;;;;;5078209;28;19928;-82
2023/10/17 18:08:13;;;;;;;;;;;;;;;;;;5073502;28;19928;-78
2023/10/17 18:10:39;;;;;;;;;;;;;;;;;;5076715;28;19985;-87
2023/10/17 18:13:05;;;;;;;;;;;;;;;;;;5075481;28;20023;-88
2023/10/17 18:15:31;;;;;;;;;;;;;;;;;;5066894;28;20361;-81
2023/10/17 18:17:57;;;;;;;;;;;;;;;;;;5071064;28;20303;-84
2023/10/17 18:20:23;;;;;;;;;;;;;;;;;;5076608;28;20759;-80
2023/10/17 18:22:49;;;;;;;;;;;;;;;;;;5079299;28;20048;-88
2023/10/17 18:25:15;;;;;;;;;;;;;;;;;;5077103;28;20431;-83
2023/10/17 18:27:41;;;;;;;;;;;;;;;;;;5073174;28;19946;-89
2023/10/17 18:30:07;;;;;;;;;;;;;;;;;;5065232;28;19943;-88
2023/10/17 18:32:33;;;;;;;;;;;;;;;;;;5067581;28;19920;-80
2023/10/17 18:34:59;;;;;;;;;;;;;;;;;;5056833;28;20094;-85
2023/10/17 18:37:25;;;;;;;;;;;;;;;;;;5076310;28;19939;-88
2023/10/17 18:39:51;;;;;;;;;;;;;;;;;;5073927;28;20585;-88